Time;durP1;ratioP1;P1;durP2;ratioP2;P2;SDS_P1;SDS_P2;PMS_P1;PMS_P2;Temp;Humidity;BMP_temperature;BMP_pressure;BME280_temperature;BME280_humidity;BME280_pressure;Samples;Min_cycle;Max_cycle;Signal;HPM_P1;HPM_P2
2022/12/07 00:02:22;;;;;;;;;;;1.80;95.20;;;;;;5074531;28;19949;-88
2022/12/07 00:04:49;;;;;;;;;;;1.90;95.40;;;;;;5074531;28;20104;-89
2022/12/07 00:07:14;;;;;;;;;;;1.80;95.40;;;;;;5074513;28;19968;-90
2022/12/07 00:09:41;;;;;;;;;;;1.80;95.40;;;;;;5074268;28;20316;-90
2022/12/07 00:12:07;;;;;;;;;;;1.80;95.40;;;;;;5074354;28;20034;-89
2022/12/07 00:14:32;;;;;;;;;;;1.70;95.30;;;;;;5074395;28;20477;-89
2022/12/07 00:16:58;;;;;;;;;;;1.70;95.40;;;;;;5073834;28;19949;-89
2022/12/07 00:19:23;;;;;;;;;;;1.60;95.40;;;;;;5074032;28;19946;-89
2022/12/07 00:21:49;;;;;;;;;;;1.50;95.50;;;;;;5074395;28;20001;-89
2022/12/07 00:24:14;;;;;;;;;;;1.50;95.60;;;;;;5074115;28;20034;-89
2022/12/07 00:26:41;;;;;;;;;;;1.40;95.70;;;;;;5074143;28;19947;-89
2022/12/07 00:29:09;;;;;;;;;;;1.40;95.80;;;;;;5073803;28;19939;-89
2022/12/07 00:31:38;;;;;;;;;;;1.50;96.00;;;;;;5074002;28;19950;-89
2022/12/07 00:34:09;;;;;;;;;;;1.50;96.00;;;;;;5073970;28;19960;-89
2022/12/07 00:36:35;;;;;;;;;;;1.50;96.10;;;;;;5073631;28;19971;-89
2022/12/07 00:39:02;;;;;;;;;;;1.60;96.20;;;;;;5073549;28;20009;-89
2022/12/07 00:41:28;;;;;;;;;;;1.60;96.30;;;;;;5055192;28;20010;-89
2022/12/07 00:43:53;;;;;;;;;;;1.70;96.30;;;;;;5073639;28;19953;-89
2022/12/07 00:46:19;;;;;;;;;;;1.70;96.40;;;;;;5073802;28;19937;-89
2022/12/07 00:48:45;;;;;;;;;;;1.60;96.30;;;;;;5073405;28;19959;-90
2022/12/07 00:51:11;;;;;;;;;;;1.60;96.20;;;;;;5073402;28;19944;-90
2022/12/07 00:53:38;;;;;;;;;;;1.60;96.40;;;;;;5073027;28;20319;-89
2022/12/07 00:56:07;;;;;;;;;;;1.70;96.30;;;;;;5073442;28;19944;-89
2022/12/07 00:58:33;;;;;;;;;;;1.90;96.30;;;;;;5072740;28;19947;-89
2022/12/07 01:01:02;;;;;;;;;;;1.80;96.20;;;;;;5073498;28;19948;-89
2022/12/07 01:03:28;;;;;;;;;;;1.70;96.10;;;;;;5073380;28;19995;-90
2022/12/07 01:05:54;;;;;;;;;;;1.80;96.10;;;;;;5073283;28;20360;-89
2022/12/07 01:08:20;;;;;;;;;;;1.80;95.90;;;;;;5072664;28;19946;-89
2022/12/07 01:10:46;;;;;;;;;;;1.60;95.70;;;;;;5073312;28;19997;-90
2022/12/07 01:13:11;;;;;;;;;;;1.70;95.80;;;;;;5073244;28;20444;-89
2022/12/07 01:15:43;;;;;;;;;;;1.70;95.60;;;;;;5073217;28;20322;-90
2022/12/07 01:18:09;;;;;;;;;;;1.60;95.50;;;;;;5072638;28;19999;-89
2022/12/07 01:20:35;;;;;;;;;;;1.50;95.40;;;;;;5073151;28;19974;-90
2022/12/07 01:23:01;;;;;;;;;;;1.50;95.50;;;;;;5073167;28;19990;-90
2022/12/07 01:25:26;;;;;;;;;;;1.50;95.50;;;;;;5073344;28;19993;-89
2022/12/07 01:27:52;;;;;;;;;;;1.50;95.20;;;;;;5073141;28;19948;-89
2022/12/07 01:30:17;;;;;;;;;;;1.50;95.30;;;;;;5073021;28;19960;-89
2022/12/07 01:32:43;;;;;;;;;;;1.50;95.00;;;;;;5072897;28;20302;-89
2022/12/07 01:35:08;;;;;;;;;;;1.40;94.70;;;;;;5084392;23;20447;-89
2022/12/07 01:37:35;;;;;;;;;;;1.40;94.30;;;;;;5093202;28;19963;-89
2022/12/07 01:40:01;;;;;;;;;;;1.40;94.30;;;;;;5092932;28;19964;-90
2022/12/07 01:42:27;;;;;;;;;;;1.50;94.30;;;;;;5092837;28;20311;-91
2022/12/07 01:45:11;;;;;;;;;;;1.60;94.10;;;;;;5093086;28;19951;-89
2022/12/07 01:47:37;;;;;;;;;;;1.60;93.80;;;;;;5092887;28;19950;-90
2022/12/07 01:50:03;;;;;;;;;;;1.50;93.90;;;;;;5092813;28;19945;-89
2022/12/07 01:52:30;;;;;;;;;;;1.40;93.80;;;;;;5085683;28;19961;-89
2022/12/07 01:55:01;;;;;;;;;;;1.20;93.50;;;;;;5072604;28;19949;-89
2022/12/07 01:57:26;;;;;;;;;;;1.00;93.70;;;;;;5072914;28;20422;-89
2022/12/07 01:59:52;;;;;;;;;;;0.90;94.10;;;;;;5072797;28;20044;-90
2022/12/07 02:02:19;;;;;;;;;;;1.00;94.40;;;;;;5072933;28;20038;-90
2022/12/07 02:04:45;;;;;;;;;;;1.10;94.50;;;;;;5072585;28;19950;-90
2022/12/07 02:07:11;;;;;;;;;;;1.10;94.50;;;;;;5072474;28;19946;-90
2022/12/07 02:09:37;;;;;;;;;;;1.00;94.50;;;;;;5074890;28;20476;-90
2022/12/07 02:12:03;;;;;;;;;;;1.00;94.50;;;;;;5076339;28;20459;-90
2022/12/07 02:14:29;;;;;;;;;;;1.10;94.50;;;;;;5076582;28;20460;-89
2022/12/07 02:16:54;;;;;;;;;;;1.00;94.40;;;;;;5076396;28;19961;-90
2022/12/07 02:19:20;;;;;;;;;;;1.00;94.40;;;;;;5076885;28;19946;-90
2022/12/07 02:21:52;;;;;;;;;;;1.00;94.50;;;;;;5076713;28;19963;-89
2022/12/07 02:24:36;;;;;;;;;;;1.10;94.60;;;;;;5076484;28;19990;-89
2022/12/07 02:27:04;;;;;;;;;;;1.10;94.60;;;;;;5076453;28;19945;-89
2022/12/07 02:29:44;;;;;;;;;;;1.00;94.80;;;;;;5076120;28;19954;-89
2022/12/07 02:32:16;;;;;;;;;;;1.00;95.00;;;;;;5076561;28;20013;-89
2022/12/07 02:34:47;;;;;;;;;;;1.10;95.10;;;;;;5076143;28;20038;-89
2022/12/07 02:37:39;;;;;;;;;;;1.10;95.10;;;;;;5076133;28;19970;-89
2022/12/07 02:40:07;;;;;;;;;;;1.20;95.20;;;;;;5059578;28;19943;-89
2022/12/07 02:42:36;;;;;;;;;;;1.20;95.20;;;;;;5075883;28;19944;-89
2022/12/07 02:45:02;;;;;;;;;;;1.20;95.30;;;;;;5075742;28;19944;-89
2022/12/07 02:47:29;;;;;;;;;;;1.30;95.30;;;;;;5076459;28;19944;-89
2022/12/07 02:49:55;;;;;;;;;;;1.40;95.20;;;;;;5076008;28;19948;-90
2022/12/07 02:52:20;;;;;;;;;;;1.40;95.10;;;;;;5075596;28;19966;-90
2022/12/07 02:54:46;;;;;;;;;;;1.50;95.40;;;;;;5075426;28;19945;-89
2022/12/07 02:57:19;;;;;;;;;;;1.60;95.20;;;;;;5075576;28;20044;-89
2022/12/07 03:00:03;;;;;;;;;;;1.50;95.10;;;;;;5075865;28;19944;-89
2022/12/07 03:02:38;;;;;;;;;;;1.80;95.00;;;;;;5075799;28;19947;-90
2022/12/07 03:05:20;;;;;;;;;;;1.80;94.70;;;;;;5075688;28;20015;-90
2022/12/07 03:08:05;;;;;;;;;;;1.70;94.30;;;;;;5075622;28;19955;-90
2022/12/07 03:10:45;;;;;;;;;;;1.70;94.50;;;;;;5075593;28;19946;-90
2022/12/07 03:13:10;;;;;;;;;;;1.70;94.40;;;;;;5075579;28;19947;-89
2022/12/07 03:15:49;;;;;;;;;;;1.70;94.50;;;;;;5075518;28;19946;-90
2022/12/07 03:18:18;;;;;;;;;;;1.90;94.50;;;;;;5075623;28;19957;-91
2022/12/07 03:20:45;;;;;;;;;;;2.10;94.20;;;;;;5074404;28;19993;-90
2022/12/07 03:23:12;;;;;;;;;;;2.20;93.70;;;;;;5075156;28;20302;-90
2022/12/07 03:25:40;;;;;;;;;;;2.20;93.20;;;;;;5075315;28;20422;-89
2022/12/07 03:28:07;;;;;;;;;;;2.20;93.00;;;;;;5075305;28;19986;-89
2022/12/07 03:30:55;;;;;;;;;;;2.00;93.00;;;;;;5075242;28;20396;-90
2022/12/07 03:33:28;;;;;;;;;;;1.90;93.10;;;;;;5069345;28;19945;-89
2022/12/07 03:36:13;;;;;;;;;;;1.90;93.40;;;;;;5074997;28;20072;-90
2022/12/07 03:38:39;;;;;;;;;;;2.00;93.40;;;;;;5074700;28;20404;-90
2022/12/07 03:41:16;;;;;;;;;;;2.00;92.70;;;;;;5075354;28;19971;-88
2022/12/07 03:43:41;;;;;;;;;;;1.70;92.70;;;;;;5074773;28;19956;-90
2022/12/07 03:46:16;;;;;;;;;;;1.40;92.70;;;;;;5074806;28;19944;-89
2022/12/07 03:48:49;;;;;;;;;;;1.40;93.40;;;;;;5075232;28;19984;-89
2022/12/07 03:51:27;;;;;;;;;;;1.40;93.40;;;;;;5074771;28;19950;-89
2022/12/07 03:53:57;;;;;;;;;;;1.50;93.50;;;;;;5074353;28;20421;-90
2022/12/07 03:56:23;;;;;;;;;;;1.50;93.80;;;;;;5074385;28;19971;-89
2022/12/07 03:58:49;;;;;;;;;;;1.60;93.70;;;;;;5074761;28;20004;-89
2022/12/07 04:01:14;;;;;;;;;;;1.60;93.60;;;;;;5074547;28;19946;-90
2022/12/07 04:03:40;;;;;;;;;;;1.50;93.40;;;;;;5074506;28;19943;-89
2022/12/07 04:06:05;;;;;;;;;;;1.50;93.50;;;;;;5074496;28;19987;-89
2022/12/07 04:08:31;;;;;;;;;;;1.70;93.50;;;;;;5074552;28;20049;-89
2022/12/07 04:10:56;;;;;;;;;;;1.70;93.30;;;;;;5073193;28;20038;-90
2022/12/07 04:13:22;;;;;;;;;;;1.80;93.40;;;;;;5074317;28;19942;-90
2022/12/07 04:15:48;;;;;;;;;;;2.10;93.20;;;;;;5074127;28;19995;-89
2022/12/07 04:18:13;;;;;;;;;;;2.30;92.50;;;;;;5074446;28;19957;-89
2022/12/07 04:20:39;;;;;;;;;;;2.30;91.90;;;;;;5074272;28;19956;-89
2022/12/07 04:23:04;;;;;;;;;;;2.00;91.80;;;;;;5074381;28;20335;-89
2022/12/07 04:25:30;;;;;;;;;;;1.90;92.50;;;;;;5073766;28;20031;-89
2022/12/07 04:27:55;;;;;;;;;;;1.80;92.90;;;;;;5074121;28;19950;-89
2022/12/07 04:30:21;;;;;;;;;;;1.80;92.90;;;;;;5074091;28;19945;-89
2022/12/07 04:32:46;;;;;;;;;;;1.70;92.90;;;;;;5072894;28;20041;-90
2022/12/07 04:35:12;;;;;;;;;;;1.70;93.20;;;;;;5073595;28;20034;-89
2022/12/07 04:37:39;;;;;;;;;;;1.80;93.00;;;;;;5073874;28;19966;-90
2022/12/07 04:40:07;;;;;;;;;;;1.80;93.10;;;;;;5073972;28;19950;-89
2022/12/07 04:42:32;;;;;;;;;;;1.90;93.10;;;;;;5073118;28;19942;-90
2022/12/07 04:44:58;;;;;;;;;;;1.70;93.00;;;;;;5073608;28;19945;-89
2022/12/07 04:47:23;;;;;;;;;;;1.60;92.70;;;;;;5073766;28;19984;-89
2022/12/07 04:49:49;;;;;;;;;;;1.60;92.80;;;;;;5073906;28;20031;-89
2022/12/07 04:52:14;;;;;;;;;;;1.80;93.00;;;;;;5073210;28;20053;-89
2022/12/07 04:54:40;;;;;;;;;;;2.10;92.90;;;;;;5073187;28;19948;-89
2022/12/07 04:57:05;;;;;;;;;;;2.20;92.70;;;;;;5073493;28;19988;-89
2022/12/07 04:59:31;;;;;;;;;;;2.10;92.50;;;;;;5073508;28;19939;-89
2022/12/07 05:01:56;;;;;;;;;;;2.00;92.60;;;;;;5073523;28;19944;-89
2022/12/07 05:04:22;;;;;;;;;;;1.90;92.50;;;;;;5073420;28;20003;-90
2022/12/07 05:06:47;;;;;;;;;;;1.80;92.60;;;;;;5073256;28;19996;-89
2022/12/07 05:09:13;;;;;;;;;;;1.80;92.40;;;;;;5072966;28;20007;-89
2022/12/07 05:11:38;;;;;;;;;;;1.70;92.40;;;;;;5073248;28;19951;-89
2022/12/07 05:14:15;;;;;;;;;;;1.60;92.50;;;;;;5073081;28;19943;-89
2022/12/07 05:16:42;;;;;;;;;;;1.60;92.90;;;;;;5071847;28;19962;-89
2022/12/07 05:19:07;;;;;;;;;;;1.70;93.10;;;;;;5071799;28;19978;-89
2022/12/07 05:21:33;;;;;;;;;;;1.70;93.00;;;;;;5073113;28;19947;-89
2022/12/07 05:23:59;;;;;;;;;;;1.70;93.10;;;;;;5073078;28;20042;-88
2022/12/07 05:26:24;;;;;;;;;;;1.80;92.90;;;;;;5073366;28;19943;-89
2022/12/07 05:28:53;;;;;;;;;;;1.80;92.80;;;;;;5073317;28;19937;-89
2022/12/07 05:31:19;;;;;;;;;;;1.80;92.60;;;;;;5072952;28;19950;-89
2022/12/07 05:33:45;;;;;;;;;;;1.70;92.60;;;;;;5072981;28;20325;-89
2022/12/07 05:36:10;;;;;;;;;;;1.60;92.70;;;;;;5072719;28;20036;-89
2022/12/07 05:38:36;;;;;;;;;;;1.50;92.80;;;;;;5072785;28;19965;-89
2022/12/07 05:41:02;;;;;;;;;;;1.50;93.00;;;;;;5073011;28;20311;-89
2022/12/07 05:43:28;;;;;;;;;;;1.50;93.20;;;;;;5072576;28;19941;-90
2022/12/07 05:45:53;;;;;;;;;;;1.50;93.30;;;;;;5072681;28;19999;-89
2022/12/07 05:48:19;;;;;;;;;;;1.70;93.40;;;;;;5072913;28;20374;-89
2022/12/07 05:50:47;;;;;;;;;;;1.80;93.10;;;;;;5072863;28;19941;-88
2022/12/07 05:53:12;;;;;;;;;;;1.80;92.40;;;;;;5072848;28;20049;-89
2022/12/07 05:55:38;;;;;;;;;;;1.70;91.70;;;;;;5070173;28;20409;-89
2022/12/07 06:00:47;;;;;;;;;;;1.30;92.60;;;;;;5065224;28;20085;-89
2022/12/07 06:03:13;;;;;;;;;;;1.30;92.70;;;;;;5072120;28;20050;-89
2022/12/07 06:05:38;;;;;;;;;;;1.20;92.80;;;;;;5072289;28;20001;-89
2022/12/07 06:08:04;;;;;;;;;;;1.10;92.90;;;;;;5072205;28;19952;-89
2022/12/07 06:10:29;;;;;;;;;;;1.10;92.80;;;;;;5072660;28;19946;-89
2022/12/07 06:12:55;;;;;;;;;;;1.10;92.90;;;;;;5071988;28;19955;-89
2022/12/07 06:15:22;;;;;;;;;;;1.10;93.20;;;;;;5072332;28;19949;-89
2022/12/07 06:17:48;;;;;;;;;;;1.10;93.50;;;;;;5071599;28;19944;-90
2022/12/07 06:20:13;;;;;;;;;;;1.10;93.80;;;;;;5072205;28;19948;-89
2022/12/07 06:22:39;;;;;;;;;;;1.00;93.90;;;;;;5069944;28;19954;-88
2022/12/07 06:25:05;;;;;;;;;;;1.10;94.00;;;;;;5070076;28;19998;-90
2022/12/07 06:27:32;;;;;;;;;;;1.10;94.10;;;;;;5069915;28;19972;-89
2022/12/07 06:29:58;;;;;;;;;;;1.20;94.20;;;;;;5071669;28;19953;-88
2022/12/07 06:32:23;;;;;;;;;;;1.30;93.90;;;;;;5069627;28;19942;-89
2022/12/07 06:34:49;;;;;;;;;;;1.20;94.00;;;;;;5068457;28;20092;-89
2022/12/07 06:37:15;;;;;;;;;;;1.30;93.90;;;;;;5068970;28;20000;-89
2022/12/07 06:39:40;;;;;;;;;;;1.40;93.70;;;;;;5069958;28;19944;-89
2022/12/07 06:42:05;;;;;;;;;;;1.20;93.50;;;;;;5071179;28;19941;-89
2022/12/07 06:44:32;;;;;;;;;;;1.30;93.40;;;;;;5070955;28;19980;-90
2022/12/07 06:46:57;;;;;;;;;;;1.50;93.30;;;;;;5069625;28;19993;-89
2022/12/07 06:49:23;;;;;;;;;;;1.50;92.90;;;;;;5070394;28;19990;-90
2022/12/07 06:51:48;;;;;;;;;;;1.60;92.70;;;;;;5071846;28;20486;-89
2022/12/07 06:54:14;;;;;;;;;;;1.60;92.70;;;;;;5069568;28;19941;-89
2022/12/07 06:56:40;;;;;;;;;;;1.70;92.60;;;;;;5074235;28;19967;-89
2022/12/07 06:59:06;;;;;;;;;;;1.90;92.10;;;;;;5073591;28;20028;-89
2022/12/07 07:01:32;;;;;;;;;;;2.00;91.60;;;;;;5066180;28;19990;-89
2022/12/07 07:03:58;;;;;;;;;;;2.00;91.40;;;;;;5071021;28;20044;-89
2022/12/07 07:06:23;;;;;;;;;;;2.00;91.20;;;;;;5070505;28;20030;-89
2022/12/07 07:08:49;;;;;;;;;;;2.10;91.10;;;;;;5066761;28;19947;-89
2022/12/07 07:11:15;;;;;;;;;;;1.90;91.50;;;;;;5070408;28;19946;-89
2022/12/07 07:13:40;;;;;;;;;;;1.90;91.50;;;;;;5070828;28;20414;-89
2022/12/07 07:16:06;;;;;;;;;;;1.80;92.10;;;;;;5069063;28;20025;-89
2022/12/07 07:18:32;;;;;;;;;;;1.80;92.00;;;;;;5070676;28;20471;-88
2022/12/07 07:20:58;;;;;;;;;;;1.90;92.20;;;;;;5073939;28;20024;-88
2022/12/07 07:23:23;;;;;;;;;;;1.90;92.10;;;;;;5072604;28;20383;-88
2022/12/07 07:25:49;;;;;;;;;;;1.90;92.00;;;;;;5073685;28;20485;-88
2022/12/07 07:28:15;;;;;;;;;;;1.90;92.00;;;;;;5073873;28;19941;-88
2022/12/07 07:30:41;;;;;;;;;;;2.00;92.10;;;;;;5071930;28;19985;-88
2022/12/07 07:33:07;;;;;;;;;;;2.30;92.00;;;;;;5075168;28;20534;-88
2022/12/07 07:35:33;;;;;;;;;;;2.70;90.90;;;;;;5071674;28;20582;-88
2022/12/07 07:37:59;;;;;;;;;;;2.70;89.90;;;;;;5074906;28;19969;-87
2022/12/07 07:40:25;;;;;;;;;;;2.70;89.70;;;;;;5073761;28;19940;-87
2022/12/07 07:42:51;;;;;;;;;;;2.60;89.70;;;;;;5075261;28;19937;-87
2022/12/07 07:45:17;;;;;;;;;;;2.40;89.80;;;;;;5072404;28;19949;-86
2022/12/07 07:47:42;;;;;;;;;;;2.20;90.40;;;;;;5073820;28;19948;-86
2022/12/07 07:50:08;;;;;;;;;;;2.20;90.90;;;;;;5072911;28;19948;-86
2022/12/07 07:52:34;;;;;;;;;;;2.10;91.30;;;;;;5072755;28;20027;-87
2022/12/07 07:54:59;;;;;;;;;;;2.10;91.60;;;;;;5074047;28;19942;-87
2022/12/07 07:57:25;;;;;;;;;;;2.20;91.80;;;;;;5071941;28;19958;-87
2022/12/07 07:59:50;;;;;;;;;;;2.30;91.80;;;;;;5073770;28;19950;-88
2022/12/07 08:02:17;;;;;;;;;;;2.40;91.90;;;;;;5072236;28;20038;-87
2022/12/07 08:04:42;;;;;;;;;;;2.40;92.30;;;;;;5073470;28;20043;-88
2022/12/07 08:07:08;;;;;;;;;;;2.50;92.40;;;;;;5072649;28;20451;-88
2022/12/07 08:09:34;;;;;;;;;;;2.60;92.30;;;;;;5061957;28;19964;-88
2022/12/07 08:12:00;;;;;;;;;;;2.70;92.20;;;;;;5074340;28;19955;-87
2022/12/07 08:14:27;;;;;;;;;;;2.80;91.90;;;;;;5073788;28;19947;-87
2022/12/07 08:16:52;;;;;;;;;;;2.90;91.90;;;;;;5072412;28;20007;-87
2022/12/07 08:19:18;;;;;;;;;;;3.00;91.40;;;;;;5069931;28;19972;-87
2022/12/07 08:21:43;;;;;;;;;;;3.00;91.50;;;;;;5064005;28;20035;-87
2022/12/07 08:24:09;;;;;;;;;;;3.10;91.80;;;;;;5070001;28;19940;-88
2022/12/07 08:26:35;;;;;;;;;;;3.10;91.80;;;;;;5072849;28;19947;-87
2022/12/07 08:29:01;;;;;;;;;;;3.20;92.10;;;;;;5072585;28;20356;-88
2022/12/07 08:31:27;;;;;;;;;;;3.30;92.30;;;;;;5072091;28;20043;-88
2022/12/07 08:33:53;;;;;;;;;;;3.40;92.00;;;;;;5073783;28;19951;-87
2022/12/07 08:36:18;;;;;;;;;;;3.40;91.60;;;;;;5071368;28;19950;-87
2022/12/07 08:38:44;;;;;;;;;;;3.50;91.70;;;;;;5073399;28;19947;-88
2022/12/07 08:41:10;;;;;;;;;;;3.70;91.30;;;;;;5070997;28;20411;-87
2022/12/07 08:43:35;;;;;;;;;;;3.90;90.30;;;;;;5072738;28;20035;-88
2022/12/07 08:46:19;;;;;;;;;;;4.10;89.20;;;;;;5071485;28;19950;-87
2022/12/07 08:49:05;;;;;;;;;;;4.20;89.00;;;;;;5072425;28;19948;-87
2022/12/07 08:51:31;;;;;;;;;;;4.20;89.00;;;;;;5072313;28;20085;-87
2022/12/07 08:53:58;;;;;;;;;;;4.30;88.40;;;;;;5069017;28;20118;-87
2022/12/07 08:56:24;;;;;;;;;;;4.20;88.10;;;;;;5070167;28;19947;-88
2022/12/07 08:58:50;;;;;;;;;;;4.30;88.10;;;;;;5069127;28;20232;-88
2022/12/07 09:01:15;;;;;;;;;;;4.40;88.30;;;;;;5070293;28;19948;-88
2022/12/07 09:03:41;;;;;;;;;;;4.40;88.50;;;;;;5071628;28;19945;-88
2022/12/07 09:06:07;;;;;;;;;;;4.40;88.40;;;;;;5068190;28;19940;-88
2022/12/07 09:08:34;;;;;;;;;;;4.40;88.10;;;;;;5067904;28;20039;-89
2022/12/07 09:11:00;;;;;;;;;;;4.50;88.30;;;;;;5064179;28;19944;-88
2022/12/07 09:13:25;;;;;;;;;;;4.60;88.30;;;;;;5068719;28;19942;-88
2022/12/07 09:15:51;;;;;;;;;;;4.60;88.30;;;;;;5060422;28;19966;-88
2022/12/07 09:18:16;;;;;;;;;;;4.70;88.60;;;;;;5070208;28;19966;-88
2022/12/07 09:20:42;;;;;;;;;;;4.90;88.50;;;;;;5068676;28;19944;-88
2022/12/07 09:23:07;;;;;;;;;;;5.20;87.70;;;;;;5070266;28;20029;-89
2022/12/07 09:25:33;;;;;;;;;;;5.30;86.40;;;;;;5072081;28;19993;-88
2022/12/07 09:27:59;;;;;;;;;;;5.40;86.50;;;;;;5071302;28;19991;-88
2022/12/07 09:30:24;;;;;;;;;;;5.50;86.80;;;;;;5067668;28;19946;-88
2022/12/07 09:32:52;;;;;;;;;;;5.50;86.70;;;;;;5069790;28;19950;-89
2022/12/07 09:35:17;;;;;;;;;;;5.60;86.10;;;;;;5066577;22;20348;-88
2022/12/07 09:37:43;;;;;;;;;;;5.80;86.30;;;;;;5040807;28;19973;-89
2022/12/07 09:40:11;;;;;;;;;;;5.90;85.90;;;;;;5039493;28;20725;-88
2022/12/07 09:42:39;;;;;;;;;;;5.90;85.40;;;;;;5043947;28;19951;-88
2022/12/07 09:45:06;;;;;;;;;;;6.00;85.20;;;;;;5043913;28;19941;-89
2022/12/07 09:47:33;;;;;;;;;;;6.10;85.50;;;;;;5032820;28;19967;-89
2022/12/07 09:50:07;;;;;;;;;;;6.20;85.40;;;;;;5041532;28;20030;-89
2022/12/07 09:52:33;;;;;;;;;;;6.30;85.20;;;;;;5037781;28;19962;-88
2022/12/07 09:54:58;;;;;;;;;;;6.60;84.60;;;;;;5025660;28;20300;-88
2022/12/07 09:57:28;;;;;;;;;;;7.00;83.30;;;;;;5028928;28;19957;-88
2022/12/07 09:59:54;;;;;;;;;;;7.20;81.90;;;;;;5028963;28;20430;-88
2022/12/07 10:07:07;;;;;;;;;;;7.50;79.40;;;;;;5081987;27;2055575;-89
2022/12/07 10:09:35;;;;;;;;;;;7.60;77.90;;;;;;5139943;27;19941;-89
2022/12/07 10:14:11;;;;;;;;;;;7.90;76.50;;;;;;5137017;27;19946;-88
2022/12/07 10:22:36;;;;;;;;;;;8.10;74.20;;;;;;5137883;27;19971;-87
2022/12/07 10:25:08;;;;;;;;;;;8.10;73.80;;;;;;5134009;27;19949;-87
2022/12/07 10:27:34;;;;;;;;;;;8.10;72.30;;;;;;5110735;27;20328;-88
2022/12/07 10:29:59;;;;;;;;;;;8.20;74.00;;;;;;5130806;27;20026;-88
2022/12/07 10:32:33;;;;;;;;;;;8.20;73.40;;;;;;5127670;28;20021;-87
2022/12/07 10:35:17;;;;;;;;;;;8.30;73.80;;;;;;5133115;27;20435;-87
2022/12/07 10:37:45;;;;;;;;;;;8.40;72.10;;;;;;5124877;27;19940;-88
2022/12/07 10:40:33;;;;;;;;;;;8.60;72.30;;;;;;5120245;28;19932;-87
2022/12/07 10:43:02;;;;;;;;;;;8.60;72.00;;;;;;5108935;28;19949;-88
2022/12/07 10:45:28;;;;;;;;;;;8.70;71.00;;;;;;5122017;27;19941;-88
2022/12/07 10:47:53;;;;;;;;;;;8.90;71.00;;;;;;5119614;28;20047;-87
2022/12/07 10:50:22;;;;;;;;;;;9.20;70.40;;;;;;5119738;28;20336;-87
2022/12/07 10:52:53;;;;;;;;;;;9.40;69.20;;;;;;5123236;27;19969;-87
2022/12/07 10:55:28;;;;;;;;;;;9.60;69.80;;;;;;5092022;28;19982;-87
2022/12/07 10:58:04;;;;;;;;;;;9.70;69.00;;;;;;5111874;28;19942;-86
2022/12/07 11:00:36;;;;;;;;;;;9.60;69.70;;;;;;5106454;28;20446;-86
2022/12/07 11:03:01;;;;;;;;;;;9.60;71.00;;;;;;5107550;28;19948;-87
2022/12/07 11:05:30;;;;;;;;;;;9.60;70.50;;;;;;5107328;28;19958;-87
2022/12/07 11:07:58;;;;;;;;;;;9.80;70.20;;;;;;5107523;28;19986;-87
2022/12/07 11:10:24;;;;;;;;;;;9.80;69.30;;;;;;5108456;28;19989;-88
2022/12/07 11:12:51;;;;;;;;;;;9.70;68.70;;;;;;5108300;28;19940;-87
2022/12/07 11:15:33;;;;;;;;;;;10.10;68.80;;;;;;5109155;28;19946;-88
2022/12/07 11:18:11;;;;;;;;;;;10.40;67.20;;;;;;5108056;28;19997;-87
2022/12/07 11:21:04;;;;;;;;;;;10.70;66.50;;;;;;5098795;28;19980;-88
2022/12/07 11:23:48;;;;;;;;;;;10.90;65.60;;;;;;5099712;28;19969;-88
2022/12/07 11:26:22;;;;;;;;;;;11.00;66.20;;;;;;5109010;28;19987;-88
2022/12/07 11:29:20;;;;;;;;;;;11.30;65.30;;;;;;5099057;28;19944;-88
2022/12/07 11:32:00;;;;;;;;;;;11.60;64.70;;;;;;5062488;28;19969;-88
2022/12/07 11:34:35;;;;;;;;;;;11.90;63.00;;;;;;5089019;28;19950;-88
2022/12/07 11:37:02;;;;;;;;;;;12.00;61.90;;;;;;5095905;28;20026;-88
2022/12/07 11:39:36;;;;;;;;;;;12.30;60.50;;;;;;5095858;28;20082;-88
2022/12/07 11:42:22;;;;;;;;;;;12.40;58.60;;;;;;5095376;28;19974;-88
2022/12/07 11:44:54;;;;;;;;;;;12.90;57.80;;;;;;5094290;28;19969;-88
2022/12/07 11:47:26;;;;;;;;;;;13.70;56.60;;;;;;5089742;28;20032;-88
2022/12/07 11:49:51;;;;;;;;;;;14.30;54.70;;;;;;5095419;28;19942;-88
2022/12/07 11:52:22;;;;;;;;;;;15.00;50.90;;;;;;5095158;28;19960;-88
2022/12/07 11:54:50;;;;;;;;;;;15.40;50.80;;;;;;5094950;28;20035;-88
2022/12/07 11:57:20;;;;;;;;;;;16.40;47.80;;;;;;5095641;28;20030;-88
2022/12/07 11:59:49;;;;;;;;;;;16.80;44.10;;;;;;5095614;28;19972;-88
2022/12/07 12:02:16;;;;;;;;;;;17.30;43.60;;;;;;5095437;28;19988;-88
2022/12/07 12:04:44;;;;;;;;;;;18.00;41.60;;;;;;5095275;28;19944;-88
2022/12/07 12:07:14;;;;;;;;;;;18.60;40.00;;;;;;5095478;28;19943;-88
2022/12/07 12:10:02;;;;;;;;;;;18.80;40.30;;;;;;5095322;28;20022;-87
2022/12/07 12:12:30;;;;;;;;;;;18.10;41.40;;;;;;5045424;28;20408;-88
2022/12/07 12:15:06;;;;;;;;;;;17.50;41.80;;;;;;5076870;28;19988;-88
2022/12/07 12:17:50;;;;;;;;;;;17.30;41.90;;;;;;5095214;28;19986;-87
2022/12/07 12:20:25;;;;;;;;;;;17.30;42.90;;;;;;5094577;28;20024;-87
2022/12/07 12:22:58;;;;;;;;;;;17.60;42.80;;;;;;5093753;28;19968;-88
2022/12/07 12:25:25;;;;;;;;;;;18.30;41.00;;;;;;5092393;28;19970;-88
2022/12/07 12:27:51;;;;;;;;;;;18.60;40.40;;;;;;5090718;28;19942;-88
2022/12/07 12:30:43;;;;;;;;;;;19.00;40.30;;;;;;5091821;28;19948;-88
2022/12/07 12:33:14;;;;;;;;;;;19.10;39.70;;;;;;5093677;28;19991;-88
2022/12/07 12:35:40;;;;;;;;;;;19.60;38.50;;;;;;5090925;28;20474;-87
2022/12/07 12:38:24;;;;;;;;;;;20.60;36.80;;;;;;5092717;28;20030;-88
2022/12/07 12:40:50;;;;;;;;;;;20.90;36.20;;;;;;5103579;28;20052;-87
2022/12/07 12:43:43;;;;;;;;;;;20.60;36.60;;;;;;5093510;28;20036;-87
2022/12/07 12:46:27;;;;;;;;;;;20.10;37.00;;;;;;5085276;28;19942;-87
2022/12/07 12:48:54;;;;;;;;;;;19.10;39.40;;;;;;5071471;28;19963;-87
2022/12/07 12:51:36;;;;;;;;;;;18.60;39.60;;;;;;5088010;28;19937;-87
2022/12/07 12:54:10;;;;;;;;;;;18.10;40.50;;;;;;5083888;28;20050;-87
2022/12/07 12:56:54;;;;;;;;;;;18.60;39.80;;;;;;5083978;28;19971;-87
2022/12/07 12:59:39;;;;;;;;;;;19.10;39.10;;;;;;5087049;28;19941;-87
2022/12/07 13:02:16;;;;;;;;;;;19.50;38.80;;;;;;5088650;28;19947;-87
2022/12/07 13:04:42;;;;;;;;;;;19.80;37.80;;;;;;5088290;28;19945;-87
2022/12/07 13:07:11;;;;;;;;;;;19.80;37.40;;;;;;5090930;28;19942;-88
2022/12/07 13:09:41;;;;;;;;;;;20.30;37.50;;;;;;5092038;28;19950;-87
2022/12/07 13:12:15;;;;;;;;;;;20.20;36.70;;;;;;5089428;28;19987;-87
2022/12/07 13:15:02;;;;;;;;;;;20.10;37.10;;;;;;5087901;28;19999;-87
2022/12/07 13:17:31;;;;;;;;;;;20.50;36.60;;;;;;5083306;28;19982;-87
2022/12/07 13:19:58;;;;;;;;;;;21.30;35.50;;;;;;5089474;28;20401;-87
2022/12/07 13:22:30;;;;;;;;;;;20.90;36.30;;;;;;5091430;28;20036;-86
2022/12/07 13:25:02;;;;;;;;;;;19.50;42.10;;;;;;5085047;28;19947;-86
2022/12/07 13:27:27;;;;;;;;;;;18.90;44.60;;;;;;5084469;28;19952;-86
2022/12/07 13:29:56;;;;;;;;;;;18.40;43.60;;;;;;5087690;28;20298;-86
2022/12/07 13:32:25;;;;;;;;;;;18.00;45.10;;;;;;5083099;28;19956;-86
2022/12/07 13:34:51;;;;;;;;;;;17.20;48.90;;;;;;5087748;28;19937;-86
2022/12/07 13:37:19;;;;;;;;;;;17.60;49.00;;;;;;5075840;28;19954;-86
2022/12/07 13:39:46;;;;;;;;;;;17.20;50.90;;;;;;5091100;28;20057;-86
2022/12/07 13:42:32;;;;;;;;;;;17.10;51.30;;;;;;5089100;28;19944;-86
2022/12/07 13:45:00;;;;;;;;;;;17.30;50.70;;;;;;5089193;28;19950;-86
2022/12/07 13:47:25;;;;;;;;;;;17.30;50.50;;;;;;5088808;28;20449;-86
2022/12/07 13:49:53;;;;;;;;;;;17.30;51.10;;;;;;5090602;28;19975;-86
2022/12/07 13:52:28;;;;;;;;;;;17.20;50.90;;;;;;5086762;28;20015;-86
2022/12/07 13:54:58;;;;;;;;;;;16.50;52.80;;;;;;5068935;28;19938;-86
2022/12/07 13:57:24;;;;;;;;;;;16.30;53.10;;;;;;5085715;28;19950;-86
2022/12/07 13:59:50;;;;;;;;;;;16.30;53.50;;;;;;5087487;28;20059;-86
2022/12/07 14:02:25;;;;;;;;;;;16.10;53.10;;;;;;5087727;28;20030;-86
2022/12/07 14:04:51;;;;;;;;;;;16.10;53.20;;;;;;5080893;28;19948;-86
2022/12/07 14:07:20;;;;;;;;;;;16.40;52.30;;;;;;5087320;28;19945;-86
2022/12/07 14:09:53;;;;;;;;;;;16.60;50.80;;;;;;5085892;28;19940;-86
2022/12/07 14:12:19;;;;;;;;;;;16.60;51.40;;;;;;5085636;28;20053;-86
2022/12/07 14:14:47;;;;;;;;;;;16.20;51.50;;;;;;5086219;28;20038;-86
2022/12/07 14:17:18;;;;;;;;;;;16.10;52.40;;;;;;5087062;28;20100;-86
2022/12/07 14:19:46;;;;;;;;;;;16.10;52.80;;;;;;5087013;28;20028;-86
2022/12/07 14:22:19;;;;;;;;;;;16.20;52.60;;;;;;5088743;28;20431;-86
2022/12/07 14:24:44;;;;;;;;;;;15.90;52.50;;;;;;5088726;28;19950;-86
2022/12/07 14:27:17;;;;;;;;;;;15.30;54.50;;;;;;5087911;28;20029;-86
2022/12/07 14:29:43;;;;;;;;;;;15.10;55.70;;;;;;5088531;28;19944;-86
2022/12/07 14:32:20;;;;;;;;;;;15.10;55.70;;;;;;5084288;28;20435;-86
2022/12/07 14:34:55;;;;;;;;;;;15.00;55.10;;;;;;5088172;28;19946;-86
2022/12/07 14:37:21;;;;;;;;;;;14.80;55.80;;;;;;5090071;28;19951;-86
2022/12/07 14:39:46;;;;;;;;;;;14.50;56.00;;;;;;5087957;28;19950;-86
2022/12/07 14:42:12;;;;;;;;;;;14.80;56.10;;;;;;5090713;28;19986;-87
2022/12/07 14:44:37;;;;;;;;;;;15.20;55.20;;;;;;5085725;28;20411;-87
2022/12/07 14:47:03;;;;;;;;;;;15.50;54.30;;;;;;5090559;28;20059;-87
2022/12/07 14:49:28;;;;;;;;;;;15.50;54.00;;;;;;5095449;28;20486;-87
2022/12/07 14:51:54;;;;;;;;;;;15.30;53.70;;;;;;5093065;28;19992;-87